createdAt,value
2023-03-06T00:01:19.206Z,1.56
2023-03-06T00:03:48.237Z,1.53
2023-03-06T00:06:17.004Z,1.52
2023-03-06T00:08:45.794Z,1.50
2023-03-06T00:11:15.688Z,1.48
2023-03-06T00:13:44.434Z,1.49
2023-03-06T00:16:13.812Z,1.47
2023-03-06T00:18:44.340Z,1.45
2023-03-06T00:21:13.117Z,1.42
2023-03-06T00:23:41.986Z,1.37
2023-03-06T00:26:11.209Z,1.32
2023-03-06T00:28:40.007Z,1.28
2023-03-06T00:31:08.818Z,1.22
2023-03-06T00:33:37.573Z,1.12
2023-03-06T00:36:06.786Z,1.03
2023-03-06T00:38:37.572Z,0.92
2023-03-06T00:41:11.214Z,0.82
2023-03-06T00:43:40.103Z,0.71
2023-03-06T00:46:10.082Z,0.60
2023-03-06T00:48:38.803Z,0.50
2023-03-06T00:51:07.797Z,0.41
2023-03-06T00:53:36.499Z,0.41
2023-03-06T00:56:05.683Z,0.42
2023-03-06T00:58:34.677Z,0.40
2023-03-06T01:01:04.358Z,0.34
2023-03-06T01:03:33.184Z,0.32
2023-03-06T01:06:01.930Z,0.28
2023-03-06T01:08:30.650Z,0.26
2023-03-06T01:10:59.540Z,0.20
2023-03-06T01:13:28.463Z,0.13
2023-03-06T01:16:07.572Z,0.05
2023-03-06T01:18:37.032Z,-0.04
2023-03-06T01:21:06.431Z,-0.11
2023-03-06T01:23:35.363Z,-0.19
2023-03-06T01:26:04.158Z,-0.28
2023-03-06T01:28:35.315Z,-0.37
2023-03-06T01:31:05.276Z,-0.41
2023-03-06T01:33:35.121Z,-0.39
2023-03-06T01:36:09.770Z,-0.38
2023-03-06T01:38:38.916Z,-0.38
2023-03-06T01:41:07.944Z,-0.38
2023-03-06T01:43:39.062Z,-0.38
2023-03-06T01:46:32.964Z,-0.39
2023-03-06T01:49:08.517Z,-0.41
2023-03-06T01:52:01.061Z,-0.41
2023-03-06T01:55:19.308Z,-0.44
2023-03-06T01:57:55.783Z,-0.49
2023-03-06T02:00:28.153Z,-0.56
2023-03-06T02:03:21.836Z,-0.65
2023-03-06T02:05:50.839Z,-0.80
2023-03-06T02:08:23.506Z,-0.94
2023-03-06T02:11:18.729Z,-1.04
2023-03-06T02:13:51.797Z,-1.14
2023-03-06T02:16:24.598Z,-1.22
2023-03-06T02:18:53.906Z,-1.27
2023-03-06T02:21:27.760Z,-1.34
2023-03-06T02:24:32.836Z,-1.37
2023-03-06T02:27:05.178Z,-1.40
2023-03-06T02:29:35.508Z,-1.42
2023-03-06T02:32:05.721Z,-1.46
2023-03-06T02:34:40.486Z,-1.52
2023-03-06T02:37:11.521Z,-1.55
2023-03-06T02:39:46.350Z,-1.56
2023-03-06T02:42:20.438Z,-1.59
2023-03-06T02:44:51.515Z,-1.61
2023-03-06T02:47:20.090Z,-1.66
2023-03-06T02:49:49.283Z,-1.70
2023-03-06T02:52:19.709Z,-1.73
2023-03-06T02:54:48.395Z,-1.75
2023-03-06T02:57:17.500Z,-1.77
2023-03-06T02:59:47.924Z,-1.78
2023-03-06T03:02:17.425Z,-1.77
2023-03-06T03:04:46.413Z,-1.76
2023-03-06T03:07:15.920Z,-1.76
2023-03-06T03:09:45.426Z,-1.76
2023-03-06T03:12:14.524Z,-1.77
2023-03-06T03:14:43.517Z,-1.79
2023-03-06T03:17:11.949Z,-1.82
2023-03-06T03:19:40.686Z,-1.83
2023-03-06T03:22:09.578Z,-1.81
2023-03-06T03:24:38.352Z,-1.78
2023-03-06T03:27:07.260Z,-1.75
2023-03-06T03:29:36.254Z,-1.71
2023-03-06T03:32:06.279Z,-1.67
2023-03-06T03:34:35.164Z,-1.66
2023-03-06T03:37:04.678Z,-1.67
2023-03-06T03:39:33.460Z,-1.69
2023-03-06T03:42:05.075Z,-1.73
2023-03-06T03:44:33.799Z,-1.74
2023-03-06T03:47:03.059Z,-1.74
2023-03-06T03:49:32.273Z,-1.74
2023-03-06T03:52:01.091Z,-1.75
2023-03-06T03:54:31.513Z,-1.73
2023-03-06T03:57:00.482Z,-1.72
2023-03-06T03:59:32.672Z,-1.72
2023-03-06T04:02:34.171Z,-1.69
2023-03-06T04:05:11.632Z,-1.67
2023-03-06T04:07:41.282Z,-1.64
2023-03-06T04:10:12.416Z,-1.61
2023-03-06T04:12:41.573Z,-1.62
2023-03-06T04:15:12.410Z,-1.64
2023-03-06T04:17:41.399Z,-1.66
2023-03-06T04:20:14.741Z,-1.69
2023-03-06T04:22:43.383Z,-1.73
2023-03-06T04:25:12.478Z,-1.76
2023-03-06T04:27:42.598Z,-1.79
2023-03-06T04:30:12.719Z,-1.87
2023-03-06T04:32:41.981Z,-1.94
2023-03-06T04:35:12.417Z,-2.00
2023-03-06T04:37:49.020Z,-2.03
2023-03-06T04:40:24.897Z,-2.03
2023-03-06T04:42:53.984Z,-2.02
2023-03-06T04:45:22.997Z,-2.01
2023-03-06T04:47:52.327Z,-2.00
2023-03-06T04:50:21.465Z,-1.97
2023-03-06T04:52:50.765Z,-1.97
2023-03-06T04:55:20.373Z,-1.98
2023-03-06T04:57:49.997Z,-2.00
2023-03-06T05:00:25.300Z,-2.01
2023-03-06T05:02:53.826Z,-2.01
2023-03-06T05:05:22.597Z,-2.00
2023-03-06T05:07:51.480Z,-1.98
2023-03-06T05:10:20.579Z,-1.95
2023-03-06T05:12:49.469Z,-1.91
2023-03-06T05:15:18.230Z,-1.86
2023-03-06T05:17:47.888Z,-1.84
2023-03-06T05:20:17.378Z,-1.82
2023-03-06T05:22:46.055Z,-1.80
2023-03-06T05:25:14.644Z,-1.75
2023-03-06T05:27:43.942Z,-1.66
2023-03-06T05:30:14.649Z,-1.53
2023-03-06T05:32:43.711Z,-1.37
2023-03-06T05:35:21.406Z,-1.21
2023-03-06T05:37:50.459Z,-1.04
2023-03-06T05:40:19.663Z,-0.92
2023-03-06T05:42:48.672Z,-0.79
2023-03-06T05:45:17.517Z,-0.69
2023-03-06T05:47:46.646Z,-0.58
2023-03-06T05:50:15.436Z,-0.45
2023-03-06T05:52:44.017Z,-0.32
2023-03-06T05:55:13.128Z,-0.20
2023-03-06T05:57:41.803Z,-0.11
2023-03-06T06:00:11.619Z,-0.04
2023-03-06T06:02:44.071Z,0.08
2023-03-06T06:05:13.693Z,0.19
2023-03-06T06:07:42.482Z,0.34
2023-03-06T06:10:11.969Z,0.50
2023-03-06T06:12:40.683Z,0.65
2023-03-06T06:15:09.463Z,0.81
2023-03-06T06:17:38.274Z,0.97
2023-03-06T06:20:07.988Z,1.07
2023-03-06T06:22:40.853Z,1.28
2023-03-06T06:25:10.253Z,1.49
2023-03-06T06:27:39.040Z,1.63
2023-03-06T06:30:09.332Z,1.73
2023-03-06T06:32:38.516Z,1.86
2023-03-06T06:35:07.774Z,1.91
2023-03-06T06:37:36.413Z,1.96
2023-03-06T06:40:06.134Z,2.06
2023-03-06T06:42:39.830Z,2.18
2023-03-06T06:45:11.212Z,2.30
2023-03-06T06:47:43.694Z,2.55
2023-03-06T06:50:14.238Z,2.72
2023-03-06T06:52:43.120Z,2.76
2023-03-06T06:55:12.823Z,2.73
2023-03-06T06:57:42.718Z,2.66
2023-03-06T07:00:14.928Z,2.58
2023-03-06T07:02:43.904Z,2.44
2023-03-06T07:05:12.589Z,2.34
2023-03-06T07:07:41.183Z,2.22
2023-03-06T07:10:16.312Z,2.11
2023-03-06T07:12:44.895Z,2.03
2023-03-06T07:15:15.952Z,1.98
2023-03-06T07:17:44.653Z,2.00
2023-03-06T07:20:13.319Z,2.01
2023-03-06T07:22:50.992Z,1.98
2023-03-06T07:25:21.346Z,1.97
2023-03-06T07:27:54.586Z,1.95
2023-03-06T07:30:24.238Z,1.96
2023-03-06T07:32:55.368Z,2.13
2023-03-06T07:35:25.470Z,2.46
2023-03-06T07:37:55.009Z,2.83
2023-03-06T07:40:24.173Z,3.27
2023-03-06T07:43:09.110Z,3.67
2023-03-06T07:45:47.106Z,4.10
2023-03-06T07:48:15.975Z,4.39
2023-03-06T07:50:44.671Z,4.68
2023-03-06T07:53:13.630Z,4.94
2023-03-06T07:55:42.394Z,5.06
2023-03-06T07:58:10.929Z,5.14
2023-03-06T08:00:40.293Z,5.30
2023-03-06T08:03:11.789Z,5.56
2023-03-06T08:05:40.468Z,5.82
2023-03-06T08:08:09.564Z,6.05
2023-03-06T08:10:38.796Z,6.21
2023-03-06T08:13:07.453Z,6.47
2023-03-06T08:15:36.034Z,6.67
2023-03-06T08:18:05.036Z,6.89
2023-03-06T08:20:33.816Z,6.97
2023-03-06T08:23:02.399Z,7.08
2023-03-06T08:25:31.292Z,7.28
2023-03-06T08:28:01.005Z,7.45
2023-03-06T08:30:30.095Z,7.56
2023-03-06T08:32:58.789Z,7.80
2023-03-06T08:35:27.698Z,8.14
2023-03-06T08:37:56.164Z,8.39
2023-03-06T08:40:27.509Z,8.65
2023-03-06T08:42:56.410Z,8.90
2023-03-06T08:45:25.220Z,9.03
2023-03-06T08:47:53.875Z,9.24
2023-03-06T08:50:22.562Z,9.52
2023-03-06T08:52:51.426Z,9.83
2023-03-06T08:55:20.037Z,9.88
2023-03-06T08:57:48.727Z,9.86
2023-03-06T09:00:18.336Z,10.03
2023-03-06T09:02:47.100Z,10.26
2023-03-06T09:05:16.006Z,10.42
2023-03-06T09:07:44.602Z,10.46
2023-03-06T09:10:18.950Z,10.67
2023-03-06T09:12:51.313Z,11.10
2023-03-06T09:15:22.846Z,11.64
2023-03-06T09:17:54.338Z,12.23
2023-03-06T09:20:22.934Z,12.76
2023-03-06T09:22:51.677Z,13.24
2023-03-06T09:25:22.637Z,13.69
2023-03-06T09:28:05.186Z,14.10
2023-03-06T09:30:41.469Z,14.47
2023-03-06T09:33:10.181Z,14.84
2023-03-06T09:35:57.779Z,14.91
2023-03-06T09:38:28.249Z,14.64
2023-03-06T09:41:04.116Z,14.51
2023-03-06T09:43:38.785Z,14.58
2023-03-06T09:46:33.010Z,14.94
2023-03-06T09:49:10.701Z,15.17
2023-03-06T09:52:08.240Z,15.15
2023-03-06T09:54:52.966Z,14.96
2023-03-06T09:57:31.935Z,14.64
2023-03-06T10:00:05.954Z,14.31
2023-03-06T10:02:41.402Z,14.07
2023-03-06T10:05:33.476Z,13.90
2023-03-06T10:08:21.904Z,13.73
2023-03-06T10:11:02.684Z,13.41
2023-03-06T10:13:43.445Z,13.07
2023-03-06T10:16:29.755Z,12.75
2023-03-06T10:19:10.977Z,12.40
2023-03-06T10:21:46.622Z,12.24
2023-03-06T10:24:21.518Z,12.13
2023-03-06T10:27:00.580Z,12.06
2023-03-06T10:30:02.598Z,12.08
2023-03-06T10:32:49.297Z,12.06
2023-03-06T10:35:25.947Z,12.16
2023-03-06T10:38:13.429Z,12.29
2023-03-06T10:40:55.751Z,12.29
2023-03-06T10:43:24.728Z,12.01
2023-03-06T10:45:54.239Z,12.05
2023-03-06T10:48:28.753Z,11.95
2023-03-06T10:51:20.389Z,11.75
2023-03-06T10:53:53.889Z,11.84
2023-03-06T10:56:43.082Z,11.89
2023-03-06T10:59:16.657Z,12.16
2023-03-06T11:01:50.600Z,12.40
2023-03-06T11:04:34.098Z,12.53
2023-03-06T11:07:20.808Z,12.65
2023-03-06T11:09:59.125Z,12.75
2023-03-06T11:12:34.773Z,12.45
2023-03-06T11:15:18.823Z,12.01
2023-03-06T11:18:09.967Z,11.70
2023-03-06T11:20:57.631Z,11.62
2023-03-06T11:23:38.128Z,11.31
2023-03-06T11:26:21.229Z,11.22
2023-03-06T11:29:11.302Z,11.34
2023-03-06T11:31:51.600Z,11.45
2023-03-06T11:34:45.067Z,11.35
2023-03-06T11:37:32.615Z,11.13
2023-03-06T11:40:21.044Z,11.00
2023-03-06T11:43:12.156Z,11.10
2023-03-06T11:45:55.897Z,11.21
2023-03-06T11:48:30.730Z,11.47
2023-03-06T11:51:16.314Z,11.83
2023-03-06T11:53:45.030Z,11.97
2023-03-06T11:56:45.089Z,12.21
2023-03-06T11:59:51.116Z,12.64
2023-03-06T12:02:39.752Z,12.75
2023-03-06T12:05:21.771Z,12.56
2023-03-06T12:08:17.672Z,12.49
2023-03-06T12:10:52.918Z,12.59
2023-03-06T12:13:56.832Z,12.97
2023-03-06T12:16:47.165Z,13.45
2023-03-06T12:19:28.930Z,13.37
2023-03-06T12:22:57.429Z,13.32
2023-03-06T12:26:08.174Z,13.41
2023-03-06T12:28:55.192Z,13.88
2023-03-06T12:31:32.902Z,14.30
2023-03-06T12:34:05.059Z,14.43
2023-03-06T12:36:37.840Z,14.72
2023-03-06T12:39:36.225Z,14.60
2023-03-06T12:42:22.868Z,14.02
2023-03-06T12:45:02.584Z,13.45
2023-03-06T12:47:38.745Z,13.09
2023-03-06T12:50:25.349Z,12.87
2023-03-06T12:52:56.480Z,12.79
2023-03-06T12:55:26.553Z,12.58
2023-03-06T12:57:56.028Z,12.50
2023-03-06T13:00:34.660Z,12.13
2023-03-06T13:03:22.172Z,11.96
2023-03-06T13:06:15.741Z,11.80
2023-03-06T13:09:12.585Z,11.57
2023-03-06T13:11:53.575Z,11.45
2023-03-06T13:14:54.801Z,11.26
2023-03-06T13:17:24.338Z,11.23
2023-03-06T13:20:35.312Z,11.21
2023-03-06T13:23:39.191Z,11.03
2023-03-06T13:26:32.380Z,10.67
2023-03-06T13:29:01.369Z,10.53
2023-03-06T13:31:33.129Z,10.44
2023-03-06T13:34:26.068Z,10.38
2023-03-06T13:37:17.499Z,10.42
2023-03-06T13:39:55.207Z,10.73
2023-03-06T13:42:34.642Z,10.74
2023-03-06T13:45:23.398Z,10.57
2023-03-06T13:50:47.020Z,10.75
2023-03-06T13:53:18.888Z,10.90
2023-03-06T13:56:09.360Z,11.02
2023-03-06T13:58:56.359Z,11.50
2023-03-06T14:01:43.098Z,12.01
2023-03-06T14:04:26.191Z,12.73
2023-03-06T14:07:22.901Z,12.93
2023-03-06T14:10:19.308Z,13.41
2023-03-06T14:12:50.941Z,13.93
2023-03-06T14:15:42.424Z,14.23
2023-03-06T14:18:26.499Z,14.48
2023-03-06T14:21:12.000Z,14.06
2023-03-06T14:23:43.904Z,13.69
2023-03-06T14:26:21.839Z,13.68
2023-03-06T14:28:53.580Z,13.46
2023-03-06T14:31:32.188Z,13.44
2023-03-06T14:34:06.445Z,13.93
2023-03-06T14:36:36.665Z,14.38
2023-03-06T14:39:13.346Z,14.58
2023-03-06T14:41:42.659Z,14.88
2023-03-06T14:44:27.031Z,15.09
2023-03-06T14:46:58.034Z,15.23
2023-03-06T14:49:27.149Z,15.18
2023-03-06T14:52:00.812Z,15.05
2023-03-06T14:54:37.092Z,14.84
2023-03-06T14:57:19.225Z,14.35
2023-03-06T14:59:58.870Z,14.31
2023-03-06T15:02:33.342Z,14.44
2023-03-06T15:05:12.208Z,14.49
2023-03-06T15:07:43.215Z,14.20
2023-03-06T15:10:30.331Z,13.97
2023-03-06T15:13:20.954Z,13.85
2023-03-06T15:16:30.355Z,13.67
2023-03-06T15:19:01.517Z,13.66
2023-03-06T15:21:38.642Z,13.56
2023-03-06T15:24:32.419Z,13.47
2023-03-06T15:27:07.342Z,12.99
2023-03-06T15:29:39.368Z,12.57
2023-03-06T15:32:34.616Z,12.25
2023-03-06T15:35:25.992Z,11.97
2023-03-06T15:37:55.429Z,11.63
2023-03-06T15:40:26.633Z,11.50
2023-03-06T15:42:56.205Z,11.34
2023-03-06T15:45:27.151Z,11.15
2023-03-06T15:47:56.653Z,10.96
2023-03-06T15:50:28.129Z,10.79
2023-03-06T15:52:56.703Z,10.52
2023-03-06T15:55:26.707Z,10.27
2023-03-06T15:58:02.291Z,9.97
2023-03-06T16:00:40.469Z,9.60
2023-03-06T16:03:11.620Z,9.27
2023-03-06T16:05:40.398Z,8.98
2023-03-06T16:08:11.310Z,8.73
2023-03-06T16:10:42.175Z,8.47
2023-03-06T16:13:16.293Z,8.23
2023-03-06T16:15:50.516Z,8.00
2023-03-06T16:18:19.466Z,7.78
2023-03-06T16:20:48.493Z,7.61
2023-03-06T16:23:17.215Z,7.44
2023-03-06T16:25:48.935Z,7.28
2023-03-06T16:28:18.166Z,7.09
2023-03-06T16:30:46.681Z,6.88
2023-03-06T16:33:15.891Z,6.70
2023-03-06T16:35:46.851Z,6.52
2023-03-06T16:38:15.852Z,6.38
2023-03-06T16:40:45.354Z,6.25
2023-03-06T16:43:15.824Z,6.14
2023-03-06T16:45:45.111Z,6.06
2023-03-06T16:48:17.771Z,6.00
2023-03-06T16:50:46.278Z,5.93
2023-03-06T16:53:15.753Z,5.86
2023-03-06T16:55:46.051Z,5.77
2023-03-06T16:58:14.767Z,5.68
2023-03-06T17:00:44.084Z,5.59
2023-03-06T17:03:13.078Z,5.52
2023-03-06T17:05:43.754Z,5.45
2023-03-06T17:08:12.809Z,5.36
2023-03-06T17:10:42.823Z,5.27
2023-03-06T17:13:12.317Z,5.17
2023-03-06T17:15:41.475Z,5.11
2023-03-06T17:18:10.373Z,5.03
2023-03-06T17:20:39.296Z,4.94
2023-03-06T17:23:08.290Z,4.85
2023-03-06T17:25:38.922Z,4.75
2023-03-06T17:28:07.406Z,4.67
2023-03-06T17:30:36.297Z,4.60
2023-03-06T17:33:05.534Z,4.53
2023-03-06T17:35:35.934Z,4.48
2023-03-06T17:38:05.029Z,4.43
2023-03-06T17:40:34.291Z,4.40
2023-03-06T17:43:02.698Z,4.37
2023-03-06T17:45:31.389Z,4.34
2023-03-06T17:48:00.496Z,4.32
2023-03-06T17:50:28.860Z,4.30
2023-03-06T17:52:57.549Z,4.26
2023-03-06T17:55:27.591Z,4.20
2023-03-06T17:57:58.201Z,4.15
2023-03-06T18:00:27.197Z,4.07
2023-03-06T18:02:56.104Z,3.99
2023-03-06T18:05:24.879Z,3.92
2023-03-06T18:07:53.560Z,3.83
2023-03-06T18:10:22.247Z,3.74
2023-03-06T18:12:51.345Z,3.66
2023-03-06T18:15:20.437Z,3.57
2023-03-06T18:17:49.639Z,3.48
2023-03-06T18:20:18.118Z,3.38
2023-03-06T18:22:46.913Z,3.30
2023-03-06T18:25:15.705Z,3.22
2023-03-06T18:27:44.321Z,3.15
2023-03-06T18:30:14.621Z,3.06
2023-03-06T18:32:43.326Z,2.98
2023-03-06T18:35:11.991Z,2.91
2023-03-06T18:37:40.893Z,2.85
2023-03-06T18:40:10.237Z,2.80
2023-03-06T18:43:38.390Z,2.77
2023-03-06T18:47:06.827Z,2.72
2023-03-06T18:49:35.636Z,2.64
2023-03-06T18:52:04.526Z,2.60
2023-03-06T18:54:33.239Z,2.55
2023-03-06T18:57:02.022Z,2.50
2023-03-06T18:59:30.787Z,2.46
2023-03-06T19:01:59.784Z,2.42
2023-03-06T19:04:28.599Z,2.39
2023-03-06T19:06:57.263Z,2.35
2023-03-06T19:09:25.918Z,2.34
2023-03-06T19:11:54.992Z,2.33
2023-03-06T19:14:23.539Z,2.32
2023-03-06T19:16:52.755Z,2.31
2023-03-06T19:19:21.466Z,2.32
2023-03-06T19:21:49.996Z,2.36
2023-03-06T19:24:18.893Z,2.41
2023-03-06T19:26:49.113Z,2.46
2023-03-06T19:29:17.697Z,2.49
2023-03-06T19:31:48.730Z,2.50
2023-03-06T19:34:17.737Z,2.49
2023-03-06T19:36:46.643Z,2.47
2023-03-06T19:39:16.318Z,2.43
2023-03-06T19:41:46.722Z,2.37
2023-03-06T19:44:16.496Z,2.31
2023-03-06T19:46:45.128Z,2.25
2023-03-06T19:49:17.065Z,2.18
2023-03-06T19:51:46.121Z,2.12
2023-03-06T19:54:14.917Z,2.07
2023-03-06T19:56:43.600Z,2.02
2023-03-06T19:59:12.695Z,1.96
2023-03-06T20:01:41.522Z,1.89
2023-03-06T20:04:10.626Z,1.84
2023-03-06T20:06:40.455Z,1.82
2023-03-06T20:10:08.671Z,1.76
2023-03-06T20:13:40.955Z,1.68
2023-03-06T20:16:13.500Z,1.60
2023-03-06T20:18:42.692Z,1.56
2023-03-06T20:21:11.353Z,1.55
2023-03-06T20:23:40.500Z,1.53
2023-03-06T20:26:15.263Z,1.47
2023-03-06T20:28:44.120Z,1.42
2023-03-06T20:31:23.429Z,1.37
2023-03-06T20:33:53.966Z,1.32
2023-03-06T20:36:29.225Z,1.28
2023-03-06T20:39:00.880Z,1.22
2023-03-06T20:41:31.383Z,1.17
2023-03-06T20:44:02.090Z,1.16
2023-03-06T20:46:32.173Z,1.22
2023-03-06T20:49:01.674Z,1.31
2023-03-06T20:51:33.454Z,1.36
2023-03-06T20:54:02.902Z,1.37
2023-03-06T20:56:34.327Z,1.32
2023-03-06T20:59:03.801Z,1.23
2023-03-06T21:01:35.337Z,1.14
2023-03-06T21:04:05.332Z,1.04
2023-03-06T21:06:33.952Z,0.93
2023-03-06T21:09:04.168Z,0.86
2023-03-06T21:11:34.516Z,0.86
2023-03-06T21:14:03.280Z,0.90
2023-03-06T21:16:32.247Z,0.95
2023-03-06T21:19:01.662Z,1.02
2023-03-06T21:21:33.211Z,1.07
2023-03-06T21:24:02.668Z,1.10
2023-03-06T21:26:34.003Z,1.11
2023-03-06T21:29:03.958Z,1.11
2023-03-06T21:31:33.896Z,1.11
2023-03-06T21:34:04.627Z,1.12
2023-03-06T21:36:34.473Z,1.18
2023-03-06T21:39:06.564Z,1.25
2023-03-06T21:41:35.395Z,1.27
2023-03-06T21:44:06.258Z,1.26
2023-03-06T21:46:35.380Z,1.25
2023-03-06T21:49:05.508Z,1.25
2023-03-06T21:51:34.453Z,1.29
2023-03-06T21:54:04.278Z,1.37
2023-03-06T21:56:33.830Z,1.45
2023-03-06T21:59:02.284Z,1.51
2023-03-06T22:01:31.350Z,1.55
2023-03-06T22:04:00.628Z,1.59
2023-03-06T22:06:31.013Z,1.63
2023-03-06T22:09:00.826Z,1.69
2023-03-06T22:11:31.609Z,1.78
2023-03-06T22:14:00.320Z,1.88
2023-03-06T22:16:29.218Z,1.98
2023-03-06T22:18:58.025Z,2.06
2023-03-06T22:21:26.720Z,2.13
2023-03-06T22:23:58.646Z,2.16
2023-03-06T22:26:28.368Z,2.18
2023-03-06T22:28:57.483Z,2.20
2023-03-06T22:31:29.005Z,2.21
2023-03-06T22:34:00.268Z,2.24
2023-03-06T22:36:33.593Z,2.26
2023-03-06T22:39:04.444Z,2.27
2023-03-06T22:41:32.990Z,2.29
2023-03-06T22:44:02.559Z,2.33
2023-03-06T22:46:32.814Z,2.37
2023-03-06T22:49:02.521Z,2.42
2023-03-06T22:51:31.415Z,2.46
2023-03-06T22:54:00.121Z,2.49
2023-03-06T22:56:28.991Z,2.51
2023-03-06T22:58:58.292Z,2.53
2023-03-06T23:01:30.266Z,2.55
2023-03-06T23:04:02.419Z,2.54
2023-03-06T23:06:36.719Z,2.51
2023-03-06T23:09:07.366Z,2.50
2023-03-06T23:11:55.010Z,2.52
2023-03-06T23:14:42.663Z,2.55
2023-03-06T23:17:30.121Z,2.57
2023-03-06T23:20:17.904Z,2.61
2023-03-06T23:23:05.436Z,2.63
2023-03-06T23:25:43.925Z,2.64
2023-03-06T23:28:12.984Z,2.66
2023-03-06T23:30:42.370Z,2.65
2023-03-06T23:33:11.748Z,2.65
2023-03-06T23:35:40.580Z,2.64
2023-03-06T23:38:09.124Z,2.64
2023-03-06T23:40:39.120Z,2.65
2023-03-06T23:43:08.039Z,2.65
2023-03-06T23:45:36.935Z,2.66
2023-03-06T23:48:08.247Z,2.68
2023-03-06T23:50:39.950Z,2.68
2023-03-06T23:53:08.620Z,2.67
2023-03-06T23:55:41.885Z,2.66
2023-03-06T23:58:11.488Z,2.63
